createdAt,value
2022-09-10T00:02:02.429Z,15.49
2022-09-10T00:04:29.147Z,15.53
2022-09-10T00:06:56.722Z,15.57
2022-09-10T00:09:23.503Z,15.59
2022-09-10T00:11:50.610Z,15.62
2022-09-10T00:14:21.554Z,15.62
2022-09-10T00:16:49.685Z,15.62
2022-09-10T00:19:16.978Z,15.59
2022-09-10T00:21:45.968Z,15.61
2022-09-10T00:24:14.163Z,15.60
2022-09-10T00:26:40.806Z,15.59
2022-09-10T00:29:12.107Z,15.59
2022-09-10T00:31:39.969Z,15.57
2022-09-10T00:34:07.531Z,15.54
2022-09-10T00:36:37.239Z,15.53
2022-09-10T00:39:08.493Z,15.52
2022-09-10T00:41:39.556Z,15.46
2022-09-10T00:44:37.531Z,15.43
2022-09-10T00:47:06.305Z,15.42
2022-09-10T00:49:39.392Z,15.36
2022-09-10T00:52:07.826Z,15.32
2022-09-10T00:54:36.210Z,15.30
2022-09-10T00:57:12.616Z,15.33
2022-09-10T00:59:44.863Z,15.38
2022-09-10T01:02:12.299Z,15.43
2022-09-10T01:04:40.517Z,15.47
2022-09-10T01:07:09.927Z,15.48
2022-09-10T01:09:38.532Z,15.47
2022-09-10T01:12:57.457Z,15.46
2022-09-10T01:15:46.254Z,15.43
2022-09-10T01:18:52.279Z,15.42
2022-09-10T01:21:32.019Z,15.38
2022-09-10T01:24:04.392Z,15.36
2022-09-10T01:26:56.588Z,15.33
2022-09-10T01:29:46.029Z,15.29
2022-09-10T01:32:17.696Z,15.27
2022-09-10T01:35:17.125Z,15.26
2022-09-10T01:37:59.425Z,15.23
2022-09-10T01:40:30.777Z,15.21
2022-09-10T01:43:02.620Z,15.19
2022-09-10T01:45:32.855Z,15.15
2022-09-10T01:48:16.267Z,15.12
2022-09-10T01:50:51.679Z,15.11
2022-09-10T01:53:36.467Z,15.08
2022-09-10T01:56:35.506Z,15.07
2022-09-10T01:59:14.236Z,15.02
2022-09-10T02:01:47.339Z,15.00
2022-09-10T02:04:15.961Z,15.00
2022-09-10T02:06:46.810Z,14.98
2022-09-10T02:09:16.159Z,14.97
2022-09-10T02:11:54.361Z,14.99
2022-09-10T02:14:22.274Z,14.98
2022-09-10T02:17:00.961Z,14.97
2022-09-10T02:19:28.034Z,14.91
2022-09-10T02:21:57.005Z,14.86
2022-09-10T02:24:23.911Z,14.84
2022-09-10T02:26:51.326Z,14.80
2022-09-10T02:29:19.409Z,14.78
2022-09-10T02:31:49.730Z,14.74
2022-09-10T02:34:16.346Z,14.71
2022-09-10T02:36:43.543Z,14.70
2022-09-10T02:39:10.382Z,14.70
2022-09-10T02:41:38.183Z,14.73
2022-09-10T02:44:04.827Z,14.77
2022-09-10T02:46:31.903Z,14.80
2022-09-10T02:48:59.041Z,14.82
2022-09-10T02:51:26.306Z,14.80
2022-09-10T02:53:53.404Z,14.76
2022-09-10T02:56:20.125Z,14.73
2022-09-10T02:58:46.888Z,14.71
2022-09-10T03:01:16.344Z,14.71
2022-09-10T03:03:43.037Z,14.69
2022-09-10T03:06:12.569Z,14.66
2022-09-10T03:08:39.297Z,14.70
2022-09-10T03:11:07.573Z,14.73
2022-09-10T03:13:35.463Z,14.76
2022-09-10T03:16:05.959Z,14.74
2022-09-10T03:18:32.671Z,14.71
2022-09-10T03:21:15.957Z,14.71
2022-09-10T03:23:44.922Z,14.70
2022-09-10T03:26:12.109Z,14.67
2022-09-10T03:28:39.004Z,14.63
2022-09-10T03:31:06.029Z,14.59
2022-09-10T03:33:33.581Z,14.56
2022-09-10T03:36:00.884Z,14.55
2022-09-10T03:38:27.883Z,14.54
2022-09-10T03:40:55.149Z,14.56
2022-09-10T03:43:22.531Z,14.56
2022-09-10T03:45:52.868Z,14.58
2022-09-10T03:48:20.593Z,14.58
2022-09-10T03:50:48.166Z,14.56
2022-09-10T03:53:15.911Z,14.56
2022-09-10T03:55:47.140Z,14.54
2022-09-10T03:58:14.939Z,14.52
2022-09-10T04:00:43.178Z,14.51
2022-09-10T04:03:11.118Z,14.51
2022-09-10T04:05:45.118Z,14.48
2022-09-10T04:08:15.457Z,14.44
2022-09-10T04:10:44.153Z,14.43
2022-09-10T04:13:11.250Z,14.42
2022-09-10T04:15:38.613Z,14.41
2022-09-10T04:18:06.469Z,14.39
2022-09-10T04:20:35.105Z,14.36
2022-09-10T04:23:03.026Z,14.39
2022-09-10T04:25:30.035Z,14.45
2022-09-10T04:27:56.632Z,14.48
2022-09-10T04:30:23.443Z,14.52
2022-09-10T04:32:50.457Z,14.50
2022-09-10T04:35:17.190Z,14.49
2022-09-10T04:37:43.849Z,14.46
2022-09-10T04:40:13.012Z,14.47
2022-09-10T04:42:39.742Z,14.44
2022-09-10T04:45:07.289Z,14.42
2022-09-10T04:47:34.445Z,14.38
2022-09-10T04:50:01.693Z,14.35
2022-09-10T04:52:29.058Z,14.33
2022-09-10T04:54:56.000Z,14.36
2022-09-10T04:57:23.678Z,14.39
2022-09-10T04:59:50.378Z,14.43
2022-09-10T05:02:17.030Z,14.45
2022-09-10T05:04:44.248Z,14.46
2022-09-10T05:07:10.881Z,14.47
2022-09-10T05:09:37.729Z,14.48
2022-09-10T05:12:04.505Z,14.49
2022-09-10T05:14:31.213Z,14.50
2022-09-10T05:16:58.371Z,14.50
2022-09-10T05:19:25.179Z,14.49
2022-09-10T05:21:51.809Z,14.48
2022-09-10T05:24:18.463Z,14.46
2022-09-10T05:26:46.573Z,14.46
2022-09-10T05:29:14.121Z,14.47
2022-09-10T05:31:41.253Z,14.49
2022-09-10T05:34:08.505Z,14.49
2022-09-10T05:36:35.622Z,14.49
2022-09-10T05:39:03.872Z,14.48
2022-09-10T05:41:31.289Z,14.49
2022-09-10T05:43:58.418Z,14.49
2022-09-10T05:46:25.498Z,14.53
2022-09-10T05:48:55.818Z,14.54
2022-09-10T05:51:22.701Z,14.58
2022-09-10T05:53:50.079Z,14.57
2022-09-10T05:56:16.898Z,14.54
2022-09-10T05:58:45.360Z,14.57
2022-09-10T06:01:12.455Z,14.58
2022-09-10T06:03:40.500Z,14.61
2022-09-10T06:06:07.572Z,14.65
2022-09-10T06:08:35.644Z,14.66
2022-09-10T06:11:05.931Z,14.69
2022-09-10T06:13:34.551Z,14.72
2022-09-10T06:16:03.212Z,14.73
2022-09-10T06:18:30.929Z,14.74
2022-09-10T06:21:09.267Z,14.78
2022-09-10T06:23:39.391Z,14.81
2022-09-10T06:26:09.863Z,14.84
2022-09-10T06:28:36.847Z,14.86
2022-09-10T06:31:04.508Z,14.90
2022-09-10T06:33:32.212Z,14.92
2022-09-10T06:36:00.763Z,14.94
2022-09-10T06:38:37.541Z,14.98
2022-09-10T06:41:07.057Z,15.05
2022-09-10T06:43:36.757Z,15.09
2022-09-10T06:46:20.263Z,15.11
2022-09-10T06:49:01.090Z,15.10
2022-09-10T06:51:27.770Z,15.08
2022-09-10T06:53:54.404Z,15.12
2022-09-10T06:56:21.596Z,15.20
2022-09-10T06:58:48.413Z,15.25
2022-09-10T07:01:17.748Z,15.31
2022-09-10T07:03:46.582Z,15.35
2022-09-10T07:06:17.839Z,15.35
2022-09-10T07:08:44.920Z,15.38
2022-09-10T07:11:13.651Z,15.45
2022-09-10T07:13:41.586Z,15.44
2022-09-10T07:16:08.998Z,15.49
2022-09-10T07:18:36.515Z,15.58
2022-09-10T07:21:11.468Z,15.67
2022-09-10T07:23:42.698Z,15.74
2022-09-10T07:26:12.071Z,15.75
2022-09-10T07:28:40.499Z,15.78
2022-09-10T07:31:18.844Z,15.86
2022-09-10T07:33:45.951Z,15.89
2022-09-10T07:36:12.728Z,15.94
2022-09-10T07:38:40.997Z,15.96
2022-09-10T07:41:12.347Z,16.01
2022-09-10T07:43:43.764Z,16.07
2022-09-10T07:46:16.484Z,16.13
2022-09-10T07:48:43.141Z,16.17
2022-09-10T07:51:11.664Z,16.21
2022-09-10T07:53:38.812Z,16.27
2022-09-10T07:56:07.938Z,16.34
2022-09-10T07:58:36.187Z,16.49
2022-09-10T08:01:09.255Z,16.62
2022-09-10T08:03:36.034Z,16.80
2022-09-10T08:06:04.040Z,16.94
2022-09-10T08:08:35.651Z,17.14
2022-09-10T08:11:13.261Z,17.24
2022-09-10T08:13:48.267Z,17.40
2022-09-10T08:16:19.074Z,17.49
2022-09-10T08:18:51.312Z,17.52
2022-09-10T08:21:19.127Z,17.55
2022-09-10T08:23:59.689Z,17.61
2022-09-10T08:28:55.966Z,17.83
2022-09-10T08:31:23.211Z,18.01
2022-09-10T08:33:53.705Z,18.17
2022-09-10T08:36:22.081Z,18.40
2022-09-10T08:38:55.140Z,18.65
2022-09-10T08:41:44.896Z,18.85
2022-09-10T08:44:16.261Z,19.06
2022-09-10T08:46:48.765Z,19.27
2022-09-10T08:49:36.792Z,19.28
2022-09-10T08:52:16.742Z,19.26
2022-09-10T08:54:54.841Z,19.32
2022-09-10T08:57:32.872Z,19.33
2022-09-10T09:00:01.823Z,19.33
2022-09-10T09:03:02.451Z,19.32
2022-09-10T09:05:38.423Z,19.32
2022-09-10T09:08:06.393Z,19.20
2022-09-10T09:10:46.647Z,19.18
2022-09-10T09:13:28.955Z,19.10
2022-09-10T09:16:01.479Z,19.00
2022-09-10T09:18:48.132Z,18.96
2022-09-10T09:21:23.799Z,18.88
2022-09-10T09:24:12.667Z,18.87
2022-09-10T09:26:42.046Z,18.90
2022-09-10T09:29:15.231Z,18.96
2022-09-10T09:31:47.683Z,19.03
2022-09-10T09:34:29.350Z,18.99
2022-09-10T09:37:01.462Z,18.97
2022-09-10T09:39:36.360Z,18.95
2022-09-10T09:42:25.162Z,18.96
2022-09-10T09:45:08.386Z,19.05
2022-09-10T09:47:35.194Z,19.23
2022-09-10T09:50:01.854Z,19.85
2022-09-10T09:52:31.930Z,20.45
2022-09-10T09:55:14.720Z,20.92
2022-09-10T09:57:43.131Z,21.31
2022-09-10T10:00:33.049Z,21.63
2022-09-10T10:03:20.725Z,21.79
2022-09-10T10:05:48.803Z,22.00
2022-09-10T10:08:34.305Z,22.73
2022-09-10T10:11:01.618Z,23.70
2022-09-10T10:13:43.284Z,24.98
2022-09-10T10:16:23.671Z,26.25
2022-09-10T10:18:50.845Z,26.83
2022-09-10T10:21:17.488Z,26.80
2022-09-10T10:23:44.778Z,26.45
2022-09-10T10:26:20.492Z,26.08
2022-09-10T10:28:56.836Z,25.71
2022-09-10T10:31:24.208Z,25.31
2022-09-10T10:33:56.634Z,25.54
2022-09-10T10:36:39.522Z,26.48
2022-09-10T10:39:40.389Z,27.42
2022-09-10T10:42:35.553Z,27.95
2022-09-10T10:45:24.119Z,28.92
2022-09-10T10:48:16.148Z,29.56
2022-09-10T10:50:55.711Z,29.43
2022-09-10T10:53:31.410Z,28.88
2022-09-10T10:55:58.610Z,28.22
2022-09-10T10:58:51.090Z,27.56
2022-09-10T11:01:22.064Z,26.82
2022-09-10T11:04:11.661Z,26.25
2022-09-10T11:06:45.147Z,26.10
2022-09-10T11:09:14.671Z,26.79
2022-09-10T11:12:03.819Z,27.93
2022-09-10T11:14:33.529Z,28.48
2022-09-10T11:17:06.812Z,28.11
2022-09-10T11:19:43.265Z,27.70
2022-09-10T11:22:22.020Z,27.34
2022-09-10T11:24:51.328Z,26.87
2022-09-10T11:27:29.218Z,26.43
2022-09-10T11:30:04.744Z,26.14
2022-09-10T11:32:35.202Z,25.91
2022-09-10T11:35:13.411Z,25.77
2022-09-10T11:38:01.347Z,25.74
2022-09-10T11:41:00.457Z,25.45
2022-09-10T11:43:49.054Z,25.12
2022-09-10T11:46:22.037Z,24.71
2022-09-10T11:48:51.498Z,24.40
2022-09-10T11:51:31.359Z,24.43
2022-09-10T11:53:58.438Z,25.09
2022-09-10T11:56:38.029Z,25.74
2022-09-10T11:59:20.874Z,26.70
2022-09-10T12:02:33.076Z,27.94
2022-09-10T12:05:18.435Z,28.76
2022-09-10T12:08:08.019Z,29.01
2022-09-10T12:11:07.645Z,29.13
2022-09-10T12:13:39.500Z,28.73
2022-09-10T12:16:22.715Z,28.19
2022-09-10T12:18:53.039Z,27.76
2022-09-10T12:21:28.682Z,27.76
2022-09-10T12:23:56.447Z,27.46
2022-09-10T12:26:23.919Z,27.00
2022-09-10T12:28:53.234Z,26.61
2022-09-10T12:31:21.934Z,26.51
2022-09-10T12:33:48.535Z,26.29
2022-09-10T12:36:35.775Z,25.95
2022-09-10T12:39:21.092Z,25.80
2022-09-10T12:41:47.681Z,25.64
2022-09-10T12:44:29.298Z,25.42
2022-09-10T12:47:15.315Z,25.03
2022-09-10T12:49:51.919Z,24.80
2022-09-10T12:52:36.392Z,24.64
2022-09-10T12:55:03.001Z,24.47
2022-09-10T12:57:52.466Z,24.86
2022-09-10T13:00:23.952Z,25.50
2022-09-10T13:03:09.609Z,25.66
2022-09-10T13:05:44.992Z,26.24
2022-09-10T13:08:45.091Z,26.87
2022-09-10T13:14:18.885Z,26.64
2022-09-10T13:16:50.463Z,26.55
2022-09-10T13:19:19.930Z,26.31
2022-09-10T13:21:48.212Z,26.74
2022-09-10T13:24:36.356Z,27.95
2022-09-10T13:27:22.614Z,28.97
2022-09-10T13:30:11.700Z,29.27
2022-09-10T13:33:05.511Z,28.95
2022-09-10T13:35:50.620Z,28.19
2022-09-10T13:38:33.184Z,27.37
2022-09-10T13:41:16.642Z,26.90
2022-09-10T13:44:27.083Z,26.23
2022-09-10T13:47:00.057Z,25.47
2022-09-10T13:49:55.423Z,24.92
2022-09-10T13:52:31.072Z,24.65
2022-09-10T13:55:00.639Z,24.58
2022-09-10T13:58:04.466Z,24.34
2022-09-10T14:00:41.193Z,24.15
2022-09-10T14:03:16.714Z,23.91
2022-09-10T14:05:50.850Z,23.69
2022-09-10T14:08:23.787Z,23.46
2022-09-10T14:11:08.153Z,23.40
2022-09-10T14:14:16.988Z,23.18
2022-09-10T14:16:52.724Z,22.92
2022-09-10T14:19:22.963Z,22.75
2022-09-10T14:21:51.762Z,22.53
2022-09-10T14:24:33.750Z,22.37
2022-09-10T14:27:27.838Z,22.20
2022-09-10T14:29:56.633Z,21.98
2022-09-10T14:32:25.847Z,21.81
2022-09-10T14:34:52.608Z,21.62
2022-09-10T14:37:28.667Z,21.49
2022-09-10T14:39:56.712Z,21.50
2022-09-10T14:42:33.031Z,21.48
2022-09-10T14:45:00.109Z,21.44
2022-09-10T14:47:35.082Z,21.41
2022-09-10T14:50:38.731Z,21.33
2022-09-10T14:53:05.329Z,21.07
2022-09-10T14:55:32.776Z,20.88
2022-09-10T14:57:59.851Z,20.69
2022-09-10T15:00:26.759Z,20.51
2022-09-10T15:02:58.763Z,20.35
2022-09-10T15:05:25.524Z,20.18
2022-09-10T15:07:52.152Z,20.01
2022-09-10T15:10:18.854Z,19.88
2022-09-10T15:12:50.232Z,19.76
2022-09-10T15:15:17.930Z,19.61
2022-09-10T15:17:44.851Z,19.46
2022-09-10T15:20:17.097Z,19.31
2022-09-10T15:22:44.704Z,19.20
2022-09-10T15:25:43.525Z,19.12
2022-09-10T15:28:10.371Z,19.06
2022-09-10T15:30:37.061Z,19.04
2022-09-10T15:33:07.518Z,19.05
2022-09-10T15:35:34.263Z,19.07
2022-09-10T15:38:03.981Z,19.06
2022-09-10T15:40:31.870Z,19.07
2022-09-10T15:42:58.506Z,19.07
2022-09-10T15:45:25.353Z,19.11
2022-09-10T15:47:52.065Z,19.13
2022-09-10T15:50:20.290Z,19.07
2022-09-10T15:52:47.531Z,19.04
2022-09-10T15:55:14.317Z,19.02
2022-09-10T15:57:41.386Z,19.00
2022-09-10T16:00:08.716Z,18.96
2022-09-10T16:02:35.489Z,18.92
2022-09-10T16:05:02.245Z,18.88
2022-09-10T16:07:29.568Z,18.78
2022-09-10T16:09:58.912Z,18.66
2022-09-10T16:12:28.293Z,18.56
2022-09-10T16:15:01.308Z,18.48
2022-09-10T16:17:28.649Z,18.43
2022-09-10T16:19:56.799Z,18.43
2022-09-10T16:22:24.133Z,18.45
2022-09-10T16:24:50.761Z,18.44
2022-09-10T16:27:18.713Z,18.39
2022-09-10T16:29:46.414Z,18.36
2022-09-10T16:32:13.516Z,18.32
2022-09-10T16:34:41.972Z,18.27
2022-09-10T16:37:08.740Z,18.23
2022-09-10T16:39:36.300Z,18.18
2022-09-10T16:42:03.457Z,18.11
2022-09-10T16:44:31.528Z,18.06
2022-09-10T16:46:59.431Z,18.01
2022-09-10T16:49:27.534Z,17.99
2022-09-10T16:51:55.002Z,17.94
2022-09-10T16:54:23.207Z,17.86
2022-09-10T16:56:50.516Z,17.76
2022-09-10T16:59:20.411Z,17.63
2022-09-10T17:01:48.429Z,17.51
2022-09-10T17:04:20.456Z,17.38
2022-09-10T17:06:49.047Z,17.28
2022-09-10T17:09:15.943Z,17.19
2022-09-10T17:11:42.600Z,17.08
2022-09-10T17:14:09.313Z,16.94
2022-09-10T17:16:40.003Z,16.85
2022-09-10T17:19:15.286Z,16.70
2022-09-10T17:21:44.541Z,16.62
2022-09-10T17:24:13.200Z,16.52
2022-09-10T17:26:40.980Z,16.43
2022-09-10T17:29:10.491Z,16.26
2022-09-10T17:31:37.256Z,16.20
2022-09-10T17:34:04.746Z,16.13
2022-09-10T17:36:32.339Z,16.08
2022-09-10T17:38:59.353Z,16.07
2022-09-10T17:41:29.712Z,16.02
2022-09-10T17:43:58.698Z,15.88
2022-09-10T17:46:27.248Z,15.80
2022-09-10T17:48:54.625Z,15.80
2022-09-10T17:51:27.132Z,15.81
2022-09-10T17:53:55.576Z,15.78
2022-09-10T17:56:24.173Z,15.75
2022-09-10T17:58:57.368Z,15.75
2022-09-10T18:01:30.095Z,15.76
2022-09-10T18:03:57.084Z,15.74
2022-09-10T18:06:29.370Z,15.77
2022-09-10T18:09:00.684Z,15.74
2022-09-10T18:11:30.297Z,15.65
2022-09-10T18:13:58.293Z,15.60
2022-09-10T18:16:28.595Z,15.54
2022-09-10T18:19:04.619Z,15.44
2022-09-10T18:21:34.147Z,15.34
2022-09-10T18:24:05.404Z,15.26
2022-09-10T18:26:35.129Z,15.22
2022-09-10T18:29:03.948Z,15.19
2022-09-10T18:31:34.110Z,15.16
2022-09-10T18:34:05.447Z,15.20
2022-09-10T18:36:32.206Z,15.22
2022-09-10T18:39:02.713Z,15.21
2022-09-10T18:41:32.593Z,15.18
2022-09-10T18:44:02.191Z,15.14
2022-09-10T18:46:32.350Z,15.11
2022-09-10T18:48:59.983Z,15.08
2022-09-10T18:51:29.774Z,15.04
2022-09-10T18:53:58.380Z,14.99
2022-09-10T18:56:27.649Z,14.93
2022-09-10T18:59:00.541Z,14.87
2022-09-10T19:01:29.536Z,14.80
2022-09-10T19:03:57.666Z,14.76
2022-09-10T19:06:29.744Z,14.69
2022-09-10T19:08:59.415Z,14.63
2022-09-10T19:11:27.835Z,14.55
2022-09-10T19:13:56.743Z,14.46
2022-09-10T19:16:27.547Z,14.45
2022-09-10T19:18:59.704Z,14.44
2022-09-10T19:21:28.880Z,14.48
2022-09-10T19:23:59.443Z,14.50
2022-09-10T19:26:29.222Z,14.50
2022-09-10T19:29:00.201Z,14.49
2022-09-10T19:31:28.629Z,14.49
2022-09-10T19:33:57.680Z,14.49
2022-09-10T19:36:27.588Z,14.50
2022-09-10T19:38:55.157Z,14.47
2022-09-10T19:41:23.493Z,14.45
2022-09-10T19:43:51.966Z,14.39
2022-09-10T19:46:20.246Z,14.35
2022-09-10T19:48:47.725Z,14.26
2022-09-10T19:51:17.631Z,14.21
2022-09-10T19:53:45.074Z,14.18
2022-09-10T19:56:20.450Z,14.14
2022-09-10T19:58:50.095Z,14.07
2022-09-10T20:01:26.134Z,14.01
2022-09-10T20:03:54.336Z,14.02
2022-09-10T20:06:25.612Z,14.00
2022-09-10T20:08:52.921Z,13.97
2022-09-10T20:11:24.623Z,13.89
2022-09-10T20:14:02.292Z,13.83
2022-09-10T20:16:31.623Z,13.81
2022-09-10T20:18:58.564Z,13.77
2022-09-10T20:21:31.063Z,13.73
2022-09-10T20:23:59.039Z,13.67
2022-09-10T20:26:27.666Z,13.58
2022-09-10T20:29:04.028Z,13.55
2022-09-10T20:31:33.986Z,13.52
2022-09-10T20:34:05.660Z,13.49
2022-09-10T20:36:34.992Z,13.45
2022-09-10T20:39:02.131Z,13.42
2022-09-10T20:41:31.970Z,13.42
2022-09-10T20:43:59.581Z,13.42
2022-09-10T20:46:28.552Z,13.40
2022-09-10T20:49:03.275Z,13.40
2022-09-10T20:51:40.628Z,13.40
2022-09-10T20:54:14.684Z,13.40
2022-09-10T20:56:41.510Z,13.37
2022-09-10T20:59:08.375Z,13.36
2022-09-10T21:01:35.278Z,13.34
2022-09-10T21:04:03.136Z,13.27
2022-09-10T21:06:32.349Z,13.22
2022-09-10T21:09:00.226Z,13.17
2022-09-10T21:11:29.670Z,13.13
2022-09-10T21:13:58.475Z,13.11
2022-09-10T21:16:32.285Z,13.08
2022-09-10T21:19:01.223Z,13.06
2022-09-10T21:21:30.416Z,13.03
2022-09-10T21:24:01.415Z,13.01
2022-09-10T21:26:30.879Z,12.94
2022-09-10T21:28:59.881Z,12.88
2022-09-10T21:31:27.515Z,12.82
2022-09-10T21:34:00.616Z,12.80
2022-09-10T21:36:30.197Z,12.79
2022-09-10T21:39:00.457Z,12.77
2022-09-10T21:41:47.945Z,12.72
2022-09-10T21:44:21.135Z,12.67
2022-09-10T21:46:52.307Z,12.64
2022-09-10T21:49:20.307Z,12.61
2022-09-10T21:51:47.038Z,12.58
2022-09-10T21:54:17.162Z,12.55
2022-09-10T21:56:43.845Z,12.51
2022-09-10T21:59:12.388Z,12.49
2022-09-10T22:01:43.943Z,12.44
2022-09-10T22:04:11.939Z,12.44
2022-09-10T22:06:39.134Z,12.47
2022-09-10T22:09:09.556Z,12.48
2022-09-10T22:11:45.910Z,12.45
2022-09-10T22:14:18.106Z,12.43
2022-09-10T22:16:48.378Z,12.38
2022-09-10T22:19:19.895Z,12.36
2022-09-10T22:21:47.222Z,12.32
2022-09-10T22:24:14.864Z,12.27
2022-09-10T22:26:44.013Z,12.21
2022-09-10T22:29:12.505Z,12.14
2022-09-10T22:31:39.170Z,12.06
2022-09-10T22:34:13.522Z,12.00
2022-09-10T22:36:41.740Z,11.95
2022-09-10T22:39:14.393Z,11.93
2022-09-10T22:41:41.688Z,11.90
2022-09-10T22:44:08.931Z,11.90
2022-09-10T22:46:36.949Z,11.90
2022-09-10T22:49:04.643Z,11.91
2022-09-10T22:51:37.676Z,11.89
2022-09-10T22:54:05.532Z,11.86
2022-09-10T22:56:33.188Z,11.84
2022-09-10T22:59:00.286Z,11.82
2022-09-10T23:01:29.906Z,11.83
2022-09-10T23:04:01.337Z,11.84
2022-09-10T23:06:30.877Z,11.82
2022-09-10T23:09:03.654Z,11.83
2022-09-10T23:11:32.612Z,11.84
2022-09-10T23:14:02.488Z,11.83
2022-09-10T23:16:49.791Z,11.78
2022-09-10T23:19:20.078Z,11.76
2022-09-10T23:21:51.356Z,11.75
2022-09-10T23:24:20.563Z,11.78
2022-09-10T23:26:47.368Z,11.81
2022-09-10T23:29:18.671Z,11.84
2022-09-10T23:31:46.326Z,11.86
2022-09-10T23:34:18.794Z,11.91
2022-09-10T23:36:47.460Z,11.96
2022-09-10T23:39:20.171Z,12.02
2022-09-10T23:41:48.409Z,12.09
2022-09-10T23:44:15.165Z,12.16
2022-09-10T23:46:41.962Z,12.23
2022-09-10T23:49:09.027Z,12.29
2022-09-10T23:51:36.723Z,12.37
2022-09-10T23:54:03.683Z,12.43
2022-09-10T23:56:30.636Z,12.49
2022-09-10T23:58:59.617Z,12.57
